createdAt,value
2023-07-28T00:01:07.402Z,9.40
2023-07-28T00:03:35.152Z,13.60
2023-07-28T00:06:02.950Z,14.45
2023-07-28T00:08:32.144Z,12.55
2023-07-28T00:10:59.961Z,10.77
2023-07-28T00:13:27.778Z,12.25
2023-07-28T00:15:55.587Z,12.90
2023-07-28T00:18:23.388Z,11.18
2023-07-28T00:20:51.321Z,12.40
2023-07-28T00:23:19.198Z,13.75
2023-07-28T00:25:48.399Z,11.52
2023-07-28T00:28:16.445Z,13.23
2023-07-28T00:30:44.528Z,11.57
2023-07-28T00:33:12.486Z,9.27
2023-07-28T00:35:40.269Z,15.60
2023-07-28T00:38:08.168Z,13.90
2023-07-28T00:40:37.097Z,18.58
2023-07-28T00:43:06.299Z,11.57
2023-07-28T00:45:35.915Z,12.82
2023-07-28T00:48:04.006Z,11.48
2023-07-28T00:50:32.175Z,14.65
2023-07-28T00:53:00.081Z,10.13
2023-07-28T00:55:28.109Z,12.18
2023-07-28T00:57:55.973Z,11.25
2023-07-28T01:00:25.178Z,11.43
2023-07-28T01:02:53.099Z,12.13
2023-07-28T01:05:23.345Z,13.75
2023-07-28T01:08:01.375Z,11.30
2023-07-28T01:10:33.469Z,11.38
2023-07-28T01:13:01.447Z,10.77
2023-07-28T01:15:30.719Z,12.30
2023-07-28T01:17:58.632Z,14.55
2023-07-28T01:20:31.157Z,9.30
2023-07-28T01:23:09.800Z,15.02
2023-07-28T01:25:50.041Z,12.55
2023-07-28T01:28:20.298Z,16.40
2023-07-28T01:30:48.185Z,9.23
2023-07-28T01:33:16.103Z,12.93
2023-07-28T01:35:43.829Z,8.35
2023-07-28T01:38:11.712Z,8.13
2023-07-28T01:40:39.578Z,10.25
2023-07-28T01:43:07.350Z,10.02
2023-07-28T01:45:36.618Z,10.02
2023-07-28T01:48:04.791Z,14.93
2023-07-28T01:50:32.706Z,14.30
2023-07-28T01:53:00.492Z,10.73
2023-07-28T01:55:29.008Z,10.00
2023-07-28T01:57:58.745Z,7.13
2023-07-28T02:00:27.205Z,9.82
2023-07-28T02:02:56.640Z,9.32
2023-07-28T02:05:24.684Z,9.30
2023-07-28T02:07:52.610Z,9.55
2023-07-28T02:10:20.564Z,8.60
2023-07-28T02:12:48.328Z,9.25
2023-07-28T02:15:16.206Z,11.85
2023-07-28T02:17:44.050Z,10.32
2023-07-28T02:20:14.223Z,13.25
2023-07-28T02:22:42.411Z,9.38
2023-07-28T02:25:11.137Z,11.23
2023-07-28T02:27:39.110Z,8.98
2023-07-28T02:30:08.299Z,12.10
2023-07-28T02:32:36.189Z,7.50
2023-07-28T02:35:04.079Z,8.43
2023-07-28T02:37:33.231Z,14.18
2023-07-28T02:40:01.082Z,9.43
2023-07-28T02:42:28.871Z,8.48
2023-07-28T02:44:56.603Z,8.23
2023-07-28T02:47:24.502Z,12.27
2023-07-28T02:49:52.497Z,11.75
2023-07-28T02:52:20.270Z,11.77
2023-07-28T02:54:51.317Z,8.55
2023-07-28T02:57:19.168Z,9.52
2023-07-28T02:59:46.952Z,9.73
2023-07-28T03:02:14.986Z,9.40
2023-07-28T03:04:42.873Z,11.35
2023-07-28T03:07:10.646Z,10.50
2023-07-28T03:09:38.513Z,13.43
2023-07-28T03:12:08.766Z,9.55
2023-07-28T03:14:36.579Z,12.15
2023-07-28T03:17:04.494Z,9.23
2023-07-28T03:19:32.313Z,9.32
2023-07-28T03:22:00.111Z,9.50
2023-07-28T03:24:27.942Z,11.05
2023-07-28T03:26:55.775Z,11.93
2023-07-28T03:29:24.862Z,9.50
2023-07-28T03:31:52.665Z,8.57
2023-07-28T03:34:20.418Z,8.45
2023-07-28T03:36:48.194Z,12.95
2023-07-28T03:39:16.006Z,17.20
2023-07-28T03:41:43.890Z,10.45
2023-07-28T03:44:11.754Z,8.10
2023-07-28T03:46:41.269Z,9.50
2023-07-28T03:49:09.032Z,7.53
2023-07-28T03:51:36.764Z,12.95
2023-07-28T03:54:04.641Z,10.13
2023-07-28T03:56:33.617Z,7.22
2023-07-28T03:59:01.527Z,13.75
2023-07-28T04:01:29.391Z,11.43
2023-07-28T04:03:58.499Z,11.23
2023-07-28T04:06:41.935Z,10.15
2023-07-28T04:09:10.247Z,12.23
2023-07-28T04:11:38.033Z,12.38
2023-07-28T04:14:06.824Z,13.93
2023-07-28T04:16:34.978Z,10.27
2023-07-28T04:19:04.398Z,8.52
2023-07-28T04:21:32.213Z,6.38
2023-07-28T04:24:00.024Z,7.07
2023-07-28T04:26:28.772Z,4.65
2023-07-28T04:28:56.580Z,8.10
2023-07-28T04:31:24.389Z,5.00
2023-07-28T04:33:52.196Z,5.03
2023-07-28T04:36:21.383Z,5.22
2023-07-28T04:38:49.142Z,7.18
2023-07-28T04:41:17.083Z,5.72
2023-07-28T04:43:44.861Z,6.07
2023-07-28T04:46:12.634Z,5.55
2023-07-28T04:48:40.432Z,5.60
2023-07-28T04:51:08.232Z,7.80
2023-07-28T04:53:37.410Z,5.82
2023-07-28T04:56:05.958Z,3.53
2023-07-28T04:58:33.774Z,7.13
2023-07-28T05:01:02.536Z,3.63
2023-07-28T05:03:30.342Z,3.90
2023-07-28T05:05:58.072Z,3.53
2023-07-28T05:08:25.844Z,5.80
2023-07-28T05:10:54.905Z,3.33
2023-07-28T05:13:22.661Z,3.95
2023-07-28T05:15:50.455Z,4.40
2023-07-28T05:18:18.263Z,4.75
2023-07-28T05:20:45.973Z,3.25
2023-07-28T05:23:13.687Z,5.60
2023-07-28T05:25:41.544Z,3.70
2023-07-28T05:28:10.798Z,4.18
2023-07-28T05:30:38.646Z,3.17
2023-07-28T05:33:06.656Z,4.43
2023-07-28T05:35:34.536Z,3.05
2023-07-28T05:38:02.406Z,5.97
2023-07-28T05:40:30.210Z,3.40
2023-07-28T05:42:58.113Z,9.35
2023-07-28T05:45:27.231Z,5.72
2023-07-28T05:47:54.993Z,5.88
2023-07-28T05:50:22.860Z,3.35
2023-07-28T05:52:50.635Z,7.13
2023-07-28T05:55:18.680Z,3.70
2023-07-28T05:57:46.577Z,6.30
2023-07-28T06:00:15.239Z,4.20
2023-07-28T06:02:45.330Z,2.97
2023-07-28T06:05:13.283Z,2.65
2023-07-28T06:07:41.001Z,2.72
2023-07-28T06:10:09.909Z,1.80
2023-07-28T06:12:37.884Z,2.65
2023-07-28T06:15:07.079Z,3.67
2023-07-28T06:17:34.817Z,3.88
2023-07-28T06:20:04.073Z,3.80
2023-07-28T06:22:31.811Z,3.13
2023-07-28T06:24:59.570Z,2.75
2023-07-28T06:27:27.332Z,2.08
2023-07-28T06:29:55.037Z,3.85
2023-07-28T06:32:24.493Z,5.03
2023-07-28T06:34:52.908Z,3.53
2023-07-28T06:37:22.359Z,4.65
2023-07-28T06:39:50.306Z,1.48
2023-07-28T06:42:24.769Z,2.17
2023-07-28T06:44:53.068Z,3.28
2023-07-28T06:47:21.028Z,1.50
2023-07-28T06:49:48.790Z,3.38
2023-07-28T06:52:16.574Z,2.92
2023-07-28T06:54:45.678Z,2.45
2023-07-28T06:57:13.447Z,1.60
2023-07-28T06:59:41.215Z,5.70
2023-07-28T07:02:10.219Z,1.80
2023-07-28T07:04:38.264Z,3.10
2023-07-28T07:07:06.515Z,1.90
2023-07-28T07:09:34.294Z,1.60
2023-07-28T07:12:03.413Z,2.75
2023-07-28T07:14:31.231Z,2.40
2023-07-28T07:16:58.936Z,3.53
2023-07-28T07:19:26.933Z,2.40
2023-07-28T07:21:54.745Z,2.63
2023-07-28T07:24:22.549Z,1.83
2023-07-28T07:26:50.330Z,2.38
2023-07-28T07:29:19.465Z,1.20
2023-07-28T07:31:47.291Z,1.48
2023-07-28T07:34:15.070Z,1.65
2023-07-28T07:36:42.965Z,4.15
2023-07-28T07:39:10.746Z,1.63
2023-07-28T07:41:38.622Z,2.28
2023-07-28T07:44:06.372Z,2.28
2023-07-28T07:46:35.475Z,3.17
2023-07-28T07:49:06.702Z,1.20
2023-07-28T07:51:35.208Z,1.50
2023-07-28T07:54:03.397Z,1.92
2023-07-28T07:56:31.373Z,1.20
2023-07-28T07:58:59.219Z,1.70
2023-07-28T08:01:27.014Z,3.40
2023-07-28T08:03:56.135Z,1.35
2023-07-28T08:06:24.022Z,2.25
2023-07-28T08:08:53.749Z,1.50
2023-07-28T08:11:21.795Z,1.73
2023-07-28T08:13:50.463Z,1.83
2023-07-28T08:16:18.395Z,1.20
2023-07-28T08:18:46.239Z,2.08
2023-07-28T08:21:15.325Z,5.85
2023-07-28T08:23:43.137Z,7.03
2023-07-28T08:26:10.907Z,2.92
2023-07-28T08:28:39.022Z,6.32
2023-07-28T08:31:07.288Z,13.07
2023-07-28T08:33:35.097Z,4.05
2023-07-28T08:36:05.137Z,2.10
2023-07-28T08:38:34.547Z,1.17
2023-07-28T08:41:02.444Z,2.78
2023-07-28T08:43:30.314Z,3.13
2023-07-28T08:45:58.573Z,3.05
2023-07-28T08:48:26.788Z,1.83
2023-07-28T08:50:55.128Z,1.30
2023-07-28T08:53:22.925Z,2.85
2023-07-28T08:55:52.067Z,1.70
2023-07-28T08:58:21.535Z,2.58
2023-07-28T09:00:51.001Z,1.20
2023-07-28T09:03:19.917Z,6.13
2023-07-28T09:05:48.829Z,2.42
2023-07-28T09:08:17.451Z,2.88
2023-07-28T09:10:46.868Z,2.10
2023-07-28T09:13:18.075Z,1.65
2023-07-28T09:15:46.771Z,2.22
2023-07-28T09:18:16.360Z,1.38
2023-07-28T09:20:45.096Z,3.85
2023-07-28T09:23:17.330Z,2.50
2023-07-28T09:25:45.264Z,2.65
2023-07-28T09:28:13.138Z,6.95
2023-07-28T09:30:50.714Z,3.72
2023-07-28T09:33:31.347Z,1.60
2023-07-28T09:35:59.628Z,5.72
2023-07-28T09:38:30.149Z,2.17
2023-07-28T09:40:59.812Z,3.67
2023-07-28T09:43:28.108Z,4.05
2023-07-28T09:45:57.561Z,2.45
2023-07-28T09:48:27.166Z,5.00
2023-07-28T09:50:55.424Z,2.90
2023-07-28T09:53:25.007Z,2.05
2023-07-28T09:55:52.983Z,5.00
2023-07-28T09:58:26.654Z,1.70
2023-07-28T10:00:55.346Z,2.38
2023-07-28T10:03:25.269Z,1.95
2023-07-28T10:05:53.416Z,2.95
2023-07-28T10:08:23.053Z,1.48
2023-07-28T10:10:53.874Z,1.30
2023-07-28T10:13:23.278Z,1.13
2023-07-28T10:15:52.641Z,1.50
2023-07-28T10:18:22.337Z,1.27
2023-07-28T10:20:52.402Z,2.10
2023-07-28T10:23:23.440Z,3.92
2023-07-28T10:25:59.132Z,1.52
2023-07-28T10:28:46.720Z,11.52
2023-07-28T10:31:33.018Z,7.85
2023-07-28T10:34:22.914Z,3.97
2023-07-28T10:37:10.765Z,2.20
2023-07-28T10:40:25.013Z,1.27
2023-07-28T10:43:11.484Z,3.88
2023-07-28T10:45:58.221Z,1.65
2023-07-28T10:48:47.090Z,3.67
2023-07-28T10:51:34.531Z,3.75
2023-07-28T10:54:22.428Z,2.65
2023-07-28T10:57:09.254Z,1.92
2023-07-28T11:00:01.616Z,0.82
2023-07-28T11:02:51.320Z,1.00
2023-07-28T11:05:38.579Z,0.90
2023-07-28T11:08:26.989Z,1.33
2023-07-28T11:11:15.991Z,1.20
2023-07-28T11:14:03.125Z,1.00
2023-07-28T11:16:50.231Z,1.52
2023-07-28T11:19:36.756Z,1.65
2023-07-28T11:22:22.939Z,1.08
2023-07-28T11:25:10.778Z,1.50
2023-07-28T11:27:58.825Z,2.17
2023-07-28T11:30:45.867Z,1.15
2023-07-28T11:33:33.662Z,0.90
2023-07-28T11:36:24.500Z,0.68
2023-07-28T11:39:12.607Z,1.80
2023-07-28T11:41:59.469Z,2.33
2023-07-28T11:44:47.074Z,3.60
2023-07-28T11:47:33.889Z,1.45
2023-07-28T11:50:25.038Z,1.13
2023-07-28T11:53:12.536Z,1.35
2023-07-28T11:55:58.660Z,1.95
2023-07-28T11:58:45.016Z,1.08
2023-07-28T12:01:33.446Z,3.53
2023-07-28T12:07:17.650Z,0.85
2023-07-28T12:10:07.685Z,1.90
2023-07-28T12:21:23.895Z,1.38
2023-07-28T12:24:10.257Z,1.67
2023-07-28T12:26:59.293Z,1.80
2023-07-28T12:32:36.913Z,4.70
2023-07-28T12:35:49.576Z,1.88
2023-07-28T12:41:22.634Z,5.78
2023-07-28T12:44:10.793Z,5.55
2023-07-28T12:46:58.452Z,2.10
2023-07-28T12:49:52.193Z,2.33
2023-07-28T12:55:30.530Z,1.70
2023-07-28T13:01:06.610Z,2.40
2023-07-28T13:03:54.541Z,2.47
2023-07-28T13:06:42.170Z,1.88
2023-07-28T13:15:10.274Z,1.63
2023-07-28T13:17:56.703Z,3.08
2023-07-28T13:20:42.904Z,2.08
2023-07-28T13:23:29.203Z,1.00
2023-07-28T13:26:16.844Z,1.23
2023-07-28T13:29:03.648Z,1.10
2023-07-28T13:31:50.091Z,2.20
2023-07-28T13:34:36.456Z,1.33
2023-07-28T13:37:22.704Z,1.77
2023-07-28T13:40:12.057Z,1.25
2023-07-28T13:43:06.059Z,2.25
2023-07-28T13:45:52.925Z,2.40
2023-07-28T13:52:16.292Z,1.08
2023-07-28T13:55:12.776Z,2.70
2023-07-28T13:57:43.846Z,2.47
2023-07-28T14:00:31.779Z,1.60
2023-07-28T14:03:18.083Z,2.88
2023-07-28T14:06:04.951Z,2.42
2023-07-28T14:08:51.200Z,1.52
2023-07-28T14:11:37.765Z,0.77
2023-07-28T14:14:24.445Z,1.55
2023-07-28T14:17:12.244Z,1.58
2023-07-28T14:19:58.378Z,1.10
2023-07-28T14:22:44.713Z,2.75
2023-07-28T14:25:30.935Z,0.73
2023-07-28T14:28:17.463Z,0.43
2023-07-28T14:31:03.771Z,0.50
2023-07-28T14:33:51.676Z,0.60
2023-07-28T14:36:38.080Z,1.75
2023-07-28T14:39:24.395Z,0.50
2023-07-28T14:42:10.856Z,1.08
2023-07-28T14:44:57.469Z,1.23
2023-07-28T14:47:43.615Z,1.33
2023-07-28T14:50:31.212Z,0.88
2023-07-28T14:53:31.213Z,1.17
2023-07-28T14:56:19.064Z,1.58
2023-07-28T14:59:05.431Z,0.60
2023-07-28T15:01:51.975Z,1.25
2023-07-28T15:04:38.371Z,1.15
2023-07-28T15:07:26.083Z,1.42
2023-07-28T15:10:12.603Z,0.60
2023-07-28T15:12:59.302Z,1.00
2023-07-28T15:15:46.221Z,0.98
2023-07-28T15:18:32.434Z,3.20
2023-07-28T15:21:19.074Z,0.75
2023-07-28T15:24:07.027Z,4.78
2023-07-28T15:26:53.487Z,1.20
2023-07-28T15:29:39.907Z,1.25
2023-07-28T15:32:26.142Z,0.80
2023-07-28T15:35:12.564Z,1.60
2023-07-28T15:37:59.211Z,2.38
2023-07-28T15:40:46.656Z,1.73
2023-07-28T15:43:32.880Z,1.35
2023-07-28T15:46:19.142Z,2.45
2023-07-28T15:49:05.363Z,1.58
2023-07-28T15:51:51.541Z,1.02
2023-07-28T15:54:37.953Z,1.70
2023-07-28T15:57:25.709Z,4.75
2023-07-28T15:59:53.641Z,3.20
2023-07-28T16:02:21.519Z,2.60
2023-07-28T16:04:49.338Z,2.88
2023-07-28T16:07:17.554Z,1.10
2023-07-28T16:09:45.866Z,1.63
2023-07-28T16:12:13.599Z,1.30
2023-07-28T16:14:42.680Z,1.30
2023-07-28T16:17:10.456Z,2.17
2023-07-28T16:19:38.202Z,2.30
2023-07-28T16:22:06.088Z,2.30
2023-07-28T16:24:45.568Z,1.75
2023-07-28T16:27:14.506Z,1.77
2023-07-28T16:29:43.733Z,2.63
2023-07-28T16:32:12.269Z,1.73
2023-07-28T16:34:40.533Z,2.25
2023-07-28T16:37:08.284Z,2.90
2023-07-28T16:39:36.128Z,2.45
2023-07-28T16:42:04.719Z,1.30
2023-07-28T16:44:32.562Z,1.40
2023-07-28T16:47:01.712Z,3.03
2023-07-28T16:49:29.630Z,2.65
2023-07-28T16:51:57.377Z,1.48
2023-07-28T16:54:25.195Z,3.60
2023-07-28T16:56:53.019Z,3.03
2023-07-28T16:59:20.798Z,1.35
2023-07-28T17:01:48.840Z,1.92
2023-07-28T17:04:19.168Z,2.65
2023-07-28T17:06:47.168Z,1.52
2023-07-28T17:09:15.067Z,2.50
2023-07-28T17:11:42.890Z,2.30
2023-07-28T17:14:10.617Z,3.08
2023-07-28T17:16:38.399Z,4.03
2023-07-28T17:19:08.342Z,2.47
2023-07-28T17:21:37.813Z,1.95
2023-07-28T17:24:06.183Z,1.58
2023-07-28T17:26:33.994Z,2.40
2023-07-28T17:29:01.889Z,2.65
2023-07-28T17:31:29.687Z,2.05
2023-07-28T17:33:57.545Z,2.33
2023-07-28T17:36:25.520Z,5.07
2023-07-28T17:38:54.713Z,2.45
2023-07-28T17:41:22.588Z,2.97
2023-07-28T17:43:50.449Z,5.10
2023-07-28T17:46:18.223Z,2.35
2023-07-28T17:48:46.026Z,2.40
2023-07-28T17:51:13.724Z,6.05
2023-07-28T17:53:41.484Z,1.90
2023-07-28T17:56:12.652Z,3.55
2023-07-28T17:58:40.557Z,2.58
2023-07-28T18:01:08.439Z,3.00
2023-07-28T18:03:36.231Z,2.42
2023-07-28T18:06:03.984Z,4.15
2023-07-28T18:08:31.729Z,4.93
2023-07-28T18:11:02.580Z,2.97
2023-07-28T18:13:31.661Z,4.00
2023-07-28T18:15:59.494Z,3.63
2023-07-28T18:18:27.282Z,2.25
2023-07-28T18:20:55.039Z,1.92
2023-07-28T18:23:23.012Z,4.13
2023-07-28T18:25:50.951Z,3.33
2023-07-28T18:28:18.781Z,3.00
2023-07-28T18:30:47.944Z,2.50
2023-07-28T18:33:15.750Z,2.60
2023-07-28T18:35:43.705Z,4.43
2023-07-28T18:38:11.454Z,2.10
2023-07-28T18:40:39.223Z,3.88
2023-07-28T18:43:06.997Z,4.90
2023-07-28T18:45:34.767Z,1.70
2023-07-28T18:48:04.194Z,3.08
2023-07-28T18:50:32.012Z,2.75
2023-07-28T18:52:59.815Z,4.75
2023-07-28T18:55:27.874Z,2.75
2023-07-28T18:57:55.665Z,2.58
2023-07-28T19:00:26.305Z,3.85
2023-07-28T19:02:56.180Z,2.72
2023-07-28T19:05:26.038Z,3.38
2023-07-28T19:07:53.902Z,6.03
2023-07-28T19:10:21.859Z,3.00
2023-07-28T19:12:48.652Z,1.95
2023-07-28T19:15:29.858Z,2.03
2023-07-28T19:18:05.070Z,27.60
2023-07-28T19:20:34.221Z,4.18
2023-07-28T19:23:02.055Z,2.70
2023-07-28T19:25:30.448Z,5.07
2023-07-28T19:27:58.550Z,3.05
2023-07-28T19:30:26.516Z,3.42
2023-07-28T19:32:54.347Z,3.10
2023-07-28T19:35:22.265Z,2.97
2023-07-28T19:37:51.428Z,1.98
2023-07-28T19:40:19.365Z,7.47
2023-07-28T19:42:47.148Z,3.65
2023-07-28T19:45:15.007Z,3.88
2023-07-28T19:47:42.813Z,3.17
2023-07-28T19:50:14.241Z,4.15
2023-07-28T19:52:45.569Z,4.28
2023-07-28T19:55:14.844Z,2.15
2023-07-28T19:57:42.556Z,5.15
2023-07-28T20:00:11.359Z,3.03
2023-07-28T20:02:39.414Z,3.33
2023-07-28T20:05:08.283Z,4.50
2023-07-28T20:07:36.202Z,3.55
2023-07-28T20:10:04.144Z,4.00
2023-07-28T20:12:33.565Z,3.10
2023-07-28T20:15:02.754Z,7.55
2023-07-28T20:17:30.571Z,3.22
2023-07-28T20:19:58.732Z,4.82
2023-07-28T20:22:26.621Z,4.68
2023-07-28T20:24:54.358Z,7.40
2023-07-28T20:27:22.917Z,3.58
2023-07-28T20:29:52.135Z,3.50
2023-07-28T20:32:19.857Z,3.83
2023-07-28T20:34:47.712Z,8.45
2023-07-28T20:37:15.701Z,6.80
2023-07-28T20:39:43.402Z,5.55
2023-07-28T20:42:11.182Z,3.50
2023-07-28T20:44:38.962Z,3.08
2023-07-28T20:47:08.717Z,4.07
2023-07-28T20:49:38.467Z,4.85
2023-07-28T20:52:07.258Z,7.70
2023-07-28T20:54:34.995Z,8.57
2023-07-28T20:57:02.898Z,7.65
2023-07-28T20:59:30.606Z,6.03
2023-07-28T21:01:58.404Z,7.28
2023-07-28T21:04:27.773Z,6.55
2023-07-28T21:06:55.494Z,6.03
2023-07-28T21:09:23.370Z,3.85
2023-07-28T21:11:51.118Z,3.38
2023-07-28T21:14:18.957Z,6.45
2023-07-28T21:16:46.923Z,5.53
2023-07-28T21:19:14.766Z,3.72
2023-07-28T21:21:44.258Z,6.55
2023-07-28T21:24:12.043Z,3.53
2023-07-28T21:26:39.754Z,10.13
2023-07-28T21:29:07.899Z,3.28
2023-07-28T21:31:36.091Z,5.25
2023-07-28T21:34:03.886Z,4.07
2023-07-28T21:36:31.612Z,5.40
2023-07-28T21:39:01.753Z,6.13
2023-07-28T21:41:29.536Z,4.03
2023-07-28T21:43:57.384Z,5.90
2023-07-28T21:46:25.464Z,4.10
2023-07-28T21:48:53.304Z,6.63
2023-07-28T21:51:21.052Z,5.20
2023-07-28T21:53:48.844Z,7.00
2023-07-28T21:56:20.201Z,5.47
2023-07-28T21:58:49.315Z,6.85
2023-07-28T22:01:17.062Z,4.38
2023-07-28T22:03:44.963Z,3.85
2023-07-28T22:06:13.069Z,3.95
2023-07-28T22:08:40.958Z,5.45
2023-07-28T22:11:10.502Z,7.05
2023-07-28T22:13:41.075Z,6.03
2023-07-28T22:16:09.171Z,7.55
2023-07-28T22:18:36.953Z,6.63
2023-07-28T22:21:04.957Z,5.70
2023-07-28T22:23:32.716Z,5.88
2023-07-28T22:26:00.974Z,4.53
2023-07-28T22:28:28.761Z,6.45
2023-07-28T22:30:57.932Z,9.13
2023-07-28T22:33:25.815Z,4.00
2023-07-28T22:35:55.532Z,4.38
2023-07-28T22:38:23.384Z,6.90
2023-07-28T22:40:51.309Z,10.02
2023-07-28T22:43:19.117Z,7.07
2023-07-28T22:45:46.941Z,5.10
2023-07-28T22:48:17.326Z,6.75
2023-07-28T22:50:48.618Z,5.18
2023-07-28T22:53:16.668Z,7.20
2023-07-28T22:55:44.382Z,6.55
2023-07-28T22:58:12.200Z,5.65
2023-07-28T23:00:40.013Z,6.47
2023-07-28T23:03:07.832Z,11.63
2023-07-28T23:05:38.314Z,9.07
2023-07-28T23:08:06.070Z,6.00
2023-07-28T23:10:33.941Z,5.15
2023-07-28T23:13:01.783Z,4.40
2023-07-28T23:15:29.485Z,6.68
2023-07-28T23:17:57.334Z,6.05
2023-07-28T23:20:25.348Z,4.68
2023-07-28T23:22:54.491Z,6.45
2023-07-28T23:25:22.390Z,5.78
2023-07-28T23:27:50.364Z,7.15
2023-07-28T23:30:18.147Z,5.70
2023-07-28T23:32:46.016Z,5.07
2023-07-28T23:35:13.832Z,10.63
2023-07-28T23:37:41.742Z,5.10
2023-07-28T23:40:11.662Z,6.78
2023-07-28T23:42:39.782Z,6.65
2023-07-28T23:45:08.870Z,14.23
2023-07-28T23:47:36.803Z,4.78
2023-07-28T23:50:05.131Z,6.93
2023-07-28T23:52:32.942Z,8.30
2023-07-28T23:55:01.141Z,7.43
2023-07-28T23:57:30.363Z,7.88
2023-07-28T23:59:58.117Z,90.97
